sensor_id;sensor_type;location;lat;lon;timestamp;P1;durP1;ratioP1;P2;durP2;ratioP2
49416;SDS011;35290;39.550;8.786;2024-02-21T00:00:13;15.38;;;8.35;;
49416;SDS011;35290;39.550;8.786;2024-02-21T00:02:39;17.48;;;10.45;;
49416;SDS011;35290;39.550;8.786;2024-02-21T00:05:05;15.95;;;10.35;;
49416;SDS011;35290;39.550;8.786;2024-02-21T00:07:30;15.85;;;9.95;;
49416;SDS011;35290;39.550;8.786;2024-02-21T00:09:56;20.40;;;10.45;;
49416;SDS011;35290;39.550;8.786;2024-02-21T00:12:22;19.88;;;10.55;;
49416;SDS011;35290;39.550;8.786;2024-02-21T00:14:47;17.30;;;10.13;;
49416;SDS011;35290;39.550;8.786;2024-02-21T00:17:13;13.77;;;9.10;;
49416;SDS011;35290;39.550;8.786;2024-02-21T00:19:38;15.73;;;8.80;;
49416;SDS011;35290;39.550;8.786;2024-02-21T00:22:04;16.27;;;9.27;;
49416;SDS011;35290;39.550;8.786;2024-02-21T00:24:29;13.65;;;9.10;;
49416;SDS011;35290;39.550;8.786;2024-02-21T00:26:55;14.75;;;9.48;;
49416;SDS011;35290;39.550;8.786;2024-02-21T00:29:20;11.65;;;8.02;;
49416;SDS011;35290;39.550;8.786;2024-02-21T00:31:45;14.73;;;8.68;;
49416;SDS011;35290;39.550;8.786;2024-02-21T00:34:11;14.00;;;9.25;;
49416;SDS011;35290;39.550;8.786;2024-02-21T00:36:38;13.88;;;8.70;;
49416;SDS011;35290;39.550;8.786;2024-02-21T00:39:03;16.25;;;8.93;;
49416;SDS011;35290;39.550;8.786;2024-02-21T00:41:29;12.88;;;7.68;;
49416;SDS011;35290;39.550;8.786;2024-02-21T00:43:55;11.30;;;7.80;;
49416;SDS011;35290;39.550;8.786;2024-02-21T00:46:20;14.13;;;8.43;;
49416;SDS011;35290;39.550;8.786;2024-02-21T00:48:46;16.15;;;8.27;;
49416;SDS011;35290;39.550;8.786;2024-02-21T00:51:11;13.27;;;8.10;;
49416;SDS011;35290;39.550;8.786;2024-02-21T00:53:37;10.73;;;8.05;;
49416;SDS011;35290;39.550;8.786;2024-02-21T00:56:04;13.60;;;8.68;;
49416;SDS011;35290;39.550;8.786;2024-02-21T00:58:30;13.10;;;8.77;;
49416;SDS011;35290;39.550;8.786;2024-02-21T01:00:56;14.20;;;8.98;;
49416;SDS011;35290;39.550;8.786;2024-02-21T01:03:21;14.68;;;8.82;;
49416;SDS011;35290;39.550;8.786;2024-02-21T01:05:47;14.27;;;9.20;;
49416;SDS011;35290;39.550;8.786;2024-02-21T01:08:12;14.90;;;9.00;;
49416;SDS011;35290;39.550;8.786;2024-02-21T01:10:38;14.15;;;9.65;;
49416;SDS011;35290;39.550;8.786;2024-02-21T01:13:03;13.75;;;8.98;;
49416;SDS011;35290;39.550;8.786;2024-02-21T01:15:29;11.25;;;8.52;;
49416;SDS011;35290;39.550;8.786;2024-02-21T01:17:54;12.80;;;8.50;;
49416;SDS011;35290;39.550;8.786;2024-02-21T01:20:20;12.73;;;8.98;;
49416;SDS011;35290;39.550;8.786;2024-02-21T01:22:46;13.23;;;8.48;;
49416;SDS011;35290;39.550;8.786;2024-02-21T01:25:12;12.75;;;8.75;;
49416;SDS011;35290;39.550;8.786;2024-02-21T01:27:37;14.32;;;8.90;;
49416;SDS011;35290;39.550;8.786;2024-02-21T01:30:03;12.65;;;8.60;;
49416;SDS011;35290;39.550;8.786;2024-02-21T01:32:29;13.60;;;8.35;;
49416;SDS011;35290;39.550;8.786;2024-02-21T01:34:54;12.05;;;9.27;;
49416;SDS011;35290;39.550;8.786;2024-02-21T01:37:20;16.77;;;8.43;;
49416;SDS011;35290;39.550;8.786;2024-02-21T01:39:45;13.98;;;9.50;;
49416;SDS011;35290;39.550;8.786;2024-02-21T01:42:11;11.63;;;8.30;;
49416;SDS011;35290;39.550;8.786;2024-02-21T01:44:37;13.18;;;9.20;;
49416;SDS011;35290;39.550;8.786;2024-02-21T01:47:03;11.75;;;8.13;;
49416;SDS011;35290;39.550;8.786;2024-02-21T01:49:28;14.82;;;9.93;;
49416;SDS011;35290;39.550;8.786;2024-02-21T01:51:54;17.25;;;9.68;;
49416;SDS011;35290;39.550;8.786;2024-02-21T01:54:19;15.82;;;9.68;;
49416;SDS011;35290;39.550;8.786;2024-02-21T01:56:46;12.70;;;9.07;;
49416;SDS011;35290;39.550;8.786;2024-02-21T01:59:11;14.80;;;9.77;;
49416;SDS011;35290;39.550;8.786;2024-02-21T02:01:37;15.45;;;9.27;;
49416;SDS011;35290;39.550;8.786;2024-02-21T02:04:03;13.15;;;9.90;;
49416;SDS011;35290;39.550;8.786;2024-02-21T02:06:30;14.45;;;10.32;;
49416;SDS011;35290;39.550;8.786;2024-02-21T02:08:56;14.80;;;10.48;;
49416;SDS011;35290;39.550;8.786;2024-02-21T02:11:22;15.85;;;10.38;;
49416;SDS011;35290;39.550;8.786;2024-02-21T02:13:48;16.45;;;10.57;;
49416;SDS011;35290;39.550;8.786;2024-02-21T02:16:13;16.48;;;10.10;;
49416;SDS011;35290;39.550;8.786;2024-02-21T02:18:39;16.67;;;9.93;;
49416;SDS011;35290;39.550;8.786;2024-02-21T02:21:05;17.48;;;10.13;;
49416;SDS011;35290;39.550;8.786;2024-02-21T02:23:36;15.05;;;9.88;;
49416;SDS011;35290;39.550;8.786;2024-02-21T02:26:01;14.73;;;9.90;;
49416;SDS011;35290;39.550;8.786;2024-02-21T02:28:27;14.65;;;9.95;;
49416;SDS011;35290;39.550;8.786;2024-02-21T02:30:52;13.32;;;9.52;;
49416;SDS011;35290;39.550;8.786;2024-02-21T02:33:18;12.93;;;9.55;;
49416;SDS011;35290;39.550;8.786;2024-02-21T02:35:43;13.07;;;9.23;;
49416;SDS011;35290;39.550;8.786;2024-02-21T02:38:10;13.77;;;9.23;;
49416;SDS011;35290;39.550;8.786;2024-02-21T02:40:37;13.20;;;8.60;;
49416;SDS011;35290;39.550;8.786;2024-02-21T02:43:03;12.40;;;9.00;;
49416;SDS011;35290;39.550;8.786;2024-02-21T02:45:29;13.60;;;9.10;;
49416;SDS011;35290;39.550;8.786;2024-02-21T02:47:54;14.20;;;9.55;;
49416;SDS011;35290;39.550;8.786;2024-02-21T02:50:22;12.15;;;8.68;;
49416;SDS011;35290;39.550;8.786;2024-02-21T02:52:48;13.52;;;9.00;;
49416;SDS011;35290;39.550;8.786;2024-02-21T02:55:13;13.32;;;9.30;;
49416;SDS011;35290;39.550;8.786;2024-02-21T02:57:39;14.25;;;9.20;;
49416;SDS011;35290;39.550;8.786;2024-02-21T03:00:07;16.77;;;9.35;;
49416;SDS011;35290;39.550;8.786;2024-02-21T03:02:33;12.80;;;8.32;;
49416;SDS011;35290;39.550;8.786;2024-02-21T03:04:59;12.93;;;8.10;;
49416;SDS011;35290;39.550;8.786;2024-02-21T03:07:25;12.13;;;7.55;;
49416;SDS011;35290;39.550;8.786;2024-02-21T03:09:50;10.50;;;7.85;;
49416;SDS011;35290;39.550;8.786;2024-02-21T03:12:17;10.90;;;8.25;;
49416;SDS011;35290;39.550;8.786;2024-02-21T03:14:49;10.35;;;8.05;;
49416;SDS011;35290;39.550;8.786;2024-02-21T03:17:15;11.77;;;8.40;;
49416;SDS011;35290;39.550;8.786;2024-02-21T03:19:41;12.43;;;8.60;;
49416;SDS011;35290;39.550;8.786;2024-02-21T03:22:06;13.27;;;8.68;;
49416;SDS011;35290;39.550;8.786;2024-02-21T03:24:32;14.05;;;9.10;;
49416;SDS011;35290;39.550;8.786;2024-02-21T03:26:58;14.55;;;9.32;;
49416;SDS011;35290;39.550;8.786;2024-02-21T03:29:24;15.32;;;9.15;;
49416;SDS011;35290;39.550;8.786;2024-02-21T03:31:50;16.17;;;9.55;;
49416;SDS011;35290;39.550;8.786;2024-02-21T03:34:16;15.35;;;9.40;;
49416;SDS011;35290;39.550;8.786;2024-02-21T03:36:41;13.23;;;10.07;;
49416;SDS011;35290;39.550;8.786;2024-02-21T03:39:06;11.90;;;9.75;;
49416;SDS011;35290;39.550;8.786;2024-02-21T03:41:35;16.50;;;9.85;;
49416;SDS011;35290;39.550;8.786;2024-02-21T03:44:00;17.27;;;10.65;;
49416;SDS011;35290;39.550;8.786;2024-02-21T03:46:26;19.63;;;11.35;;
49416;SDS011;35290;39.550;8.786;2024-02-21T03:48:52;18.33;;;11.90;;
49416;SDS011;35290;39.550;8.786;2024-02-21T03:51:19;18.10;;;11.27;;
49416;SDS011;35290;39.550;8.786;2024-02-21T03:53:45;16.55;;;11.13;;
49416;SDS011;35290;39.550;8.786;2024-02-21T03:56:10;17.10;;;11.10;;
49416;SDS011;35290;39.550;8.786;2024-02-21T03:58:36;15.75;;;10.68;;
49416;SDS011;35290;39.550;8.786;2024-02-21T04:01:01;16.55;;;10.80;;
49416;SDS011;35290;39.550;8.786;2024-02-21T04:03:28;14.82;;;9.85;;
49416;SDS011;35290;39.550;8.786;2024-02-21T04:05:53;17.65;;;10.30;;
49416;SDS011;35290;39.550;8.786;2024-02-21T04:08:19;16.58;;;10.30;;
49416;SDS011;35290;39.550;8.786;2024-02-21T04:10:44;18.20;;;11.15;;
49416;SDS011;35290;39.550;8.786;2024-02-21T04:13:09;16.60;;;10.57;;
49416;SDS011;35290;39.550;8.786;2024-02-21T04:15:35;14.82;;;9.25;;
49416;SDS011;35290;39.550;8.786;2024-02-21T04:18:01;13.98;;;9.32;;
49416;SDS011;35290;39.550;8.786;2024-02-21T04:20:28;12.77;;;9.10;;
49416;SDS011;35290;39.550;8.786;2024-02-21T04:22:54;16.48;;;10.02;;
49416;SDS011;35290;39.550;8.786;2024-02-21T04:25:19;13.57;;;8.88;;
49416;SDS011;35290;39.550;8.786;2024-02-21T04:27:45;13.02;;;9.02;;
49416;SDS011;35290;39.550;8.786;2024-02-21T04:30:11;14.55;;;8.90;;
49416;SDS011;35290;39.550;8.786;2024-02-21T04:32:37;9.57;;;7.70;;
49416;SDS011;35290;39.550;8.786;2024-02-21T04:35:02;9.63;;;7.13;;
49416;SDS011;35290;39.550;8.786;2024-02-21T04:37:28;11.65;;;8.02;;
49416;SDS011;35290;39.550;8.786;2024-02-21T04:39:54;10.50;;;7.55;;
49416;SDS011;35290;39.550;8.786;2024-02-21T04:42:19;13.70;;;7.95;;
49416;SDS011;35290;39.550;8.786;2024-02-21T04:44:45;9.88;;;7.60;;
49416;SDS011;35290;39.550;8.786;2024-02-21T04:47:10;15.35;;;9.98;;
49416;SDS011;35290;39.550;8.786;2024-02-21T04:49:35;20.17;;;12.52;;
49416;SDS011;35290;39.550;8.786;2024-02-21T04:52:01;17.77;;;11.85;;
49416;SDS011;35290;39.550;8.786;2024-02-21T04:54:27;22.00;;;14.02;;
49416;SDS011;35290;39.550;8.786;2024-02-21T04:56:52;21.40;;;13.75;;
49416;SDS011;35290;39.550;8.786;2024-02-21T04:59:18;17.42;;;12.02;;
49416;SDS011;35290;39.550;8.786;2024-02-21T05:01:44;20.33;;;12.73;;
49416;SDS011;35290;39.550;8.786;2024-02-21T05:04:09;19.20;;;12.95;;
49416;SDS011;35290;39.550;8.786;2024-02-21T05:06:38;16.67;;;12.18;;
49416;SDS011;35290;39.550;8.786;2024-02-21T05:09:04;17.13;;;12.00;;
49416;SDS011;35290;39.550;8.786;2024-02-21T05:11:30;24.45;;;15.27;;
49416;SDS011;35290;39.550;8.786;2024-02-21T05:13:56;46.08;;;25.25;;
49416;SDS011;35290;39.550;8.786;2024-02-21T05:16:21;22.85;;;14.23;;
49416;SDS011;35290;39.550;8.786;2024-02-21T05:18:47;21.48;;;13.48;;
49416;SDS011;35290;39.550;8.786;2024-02-21T05:21:13;17.13;;;10.85;;
49416;SDS011;35290;39.550;8.786;2024-02-21T05:23:38;13.15;;;9.23;;
49416;SDS011;35290;39.550;8.786;2024-02-21T05:26:04;13.57;;;8.20;;
49416;SDS011;35290;39.550;8.786;2024-02-21T05:28:30;12.05;;;7.93;;
49416;SDS011;35290;39.550;8.786;2024-02-21T05:30:56;11.30;;;8.13;;
49416;SDS011;35290;39.550;8.786;2024-02-21T05:33:21;11.63;;;8.27;;
49416;SDS011;35290;39.550;8.786;2024-02-21T05:35:47;13.63;;;9.27;;
49416;SDS011;35290;39.550;8.786;2024-02-21T05:38:13;13.32;;;9.52;;
49416;SDS011;35290;39.550;8.786;2024-02-21T05:40:39;12.20;;;10.07;;
49416;SDS011;35290;39.550;8.786;2024-02-21T05:43:05;14.95;;;9.93;;
49416;SDS011;35290;39.550;8.786;2024-02-21T05:45:30;14.30;;;9.68;;
49416;SDS011;35290;39.550;8.786;2024-02-21T05:47:56;14.15;;;8.48;;
49416;SDS011;35290;39.550;8.786;2024-02-21T05:50:22;16.98;;;9.27;;
49416;SDS011;35290;39.550;8.786;2024-02-21T05:52:50;13.93;;;9.82;;
49416;SDS011;35290;39.550;8.786;2024-02-21T05:55:16;13.00;;;9.68;;
49416;SDS011;35290;39.550;8.786;2024-02-21T05:57:42;15.85;;;9.07;;
49416;SDS011;35290;39.550;8.786;2024-02-21T06:00:07;17.27;;;9.02;;
49416;SDS011;35290;39.550;8.786;2024-02-21T06:02:34;20.02;;;9.90;;
49416;SDS011;35290;39.550;8.786;2024-02-21T06:04:59;16.17;;;8.38;;
49416;SDS011;35290;39.550;8.786;2024-02-21T06:07:25;14.05;;;7.80;;
49416;SDS011;35290;39.550;8.786;2024-02-21T06:09:51;11.93;;;7.93;;
49416;SDS011;35290;39.550;8.786;2024-02-21T06:12:16;14.55;;;8.45;;
49416;SDS011;35290;39.550;8.786;2024-02-21T06:14:42;12.75;;;8.20;;
49416;SDS011;35290;39.550;8.786;2024-02-21T06:17:07;12.57;;;8.82;;
49416;SDS011;35290;39.550;8.786;2024-02-21T06:19:33;11.93;;;8.95;;
49416;SDS011;35290;39.550;8.786;2024-02-21T06:21:58;16.92;;;11.38;;
49416;SDS011;35290;39.550;8.786;2024-02-21T06:24:24;23.77;;;11.95;;
49416;SDS011;35290;39.550;8.786;2024-02-21T06:26:49;18.80;;;12.27;;
49416;SDS011;35290;39.550;8.786;2024-02-21T06:29:14;16.98;;;11.23;;
49416;SDS011;35290;39.550;8.786;2024-02-21T06:31:40;18.25;;;12.07;;
49416;SDS011;35290;39.550;8.786;2024-02-21T06:34:06;19.27;;;11.90;;
49416;SDS011;35290;39.550;8.786;2024-02-21T06:36:31;16.95;;;10.95;;
49416;SDS011;35290;39.550;8.786;2024-02-21T06:38:57;17.25;;;10.38;;
49416;SDS011;35290;39.550;8.786;2024-02-21T06:41:24;17.42;;;11.40;;
49416;SDS011;35290;39.550;8.786;2024-02-21T06:43:50;16.23;;;10.73;;
49416;SDS011;35290;39.550;8.786;2024-02-21T06:46:22;17.27;;;10.82;;
49416;SDS011;35290;39.550;8.786;2024-02-21T06:48:51;14.30;;;9.18;;
49416;SDS011;35290;39.550;8.786;2024-02-21T06:51:16;11.95;;;7.82;;
49416;SDS011;35290;39.550;8.786;2024-02-21T06:53:42;11.18;;;7.53;;
49416;SDS011;35290;39.550;8.786;2024-02-21T06:56:09;13.05;;;7.00;;
49416;SDS011;35290;39.550;8.786;2024-02-21T06:58:34;10.75;;;7.25;;
49416;SDS011;35290;39.550;8.786;2024-02-21T07:01:00;19.60;;;12.77;;
49416;SDS011;35290;39.550;8.786;2024-02-21T07:03:25;24.85;;;16.92;;
49416;SDS011;35290;39.550;8.786;2024-02-21T07:05:51;23.00;;;15.10;;
49416;SDS011;35290;39.550;8.786;2024-02-21T07:08:16;25.58;;;14.70;;
49416;SDS011;35290;39.550;8.786;2024-02-21T07:10:42;19.55;;;12.63;;
49416;SDS011;35290;39.550;8.786;2024-02-21T07:13:08;13.98;;;9.38;;
49416;SDS011;35290;39.550;8.786;2024-02-21T07:15:33;13.82;;;8.90;;
49416;SDS011;35290;39.550;8.786;2024-02-21T07:17:59;9.43;;;7.05;;
49416;SDS011;35290;39.550;8.786;2024-02-21T07:20:24;9.35;;;6.45;;
49416;SDS011;35290;39.550;8.786;2024-02-21T07:22:50;13.93;;;8.80;;
49416;SDS011;35290;39.550;8.786;2024-02-21T07:25:15;11.63;;;8.63;;
49416;SDS011;35290;39.550;8.786;2024-02-21T07:27:42;15.57;;;9.43;;
49416;SDS011;35290;39.550;8.786;2024-02-21T07:30:08;13.35;;;9.63;;
49416;SDS011;35290;39.550;8.786;2024-02-21T07:32:33;14.85;;;9.05;;
49416;SDS011;35290;39.550;8.786;2024-02-21T07:34:59;12.23;;;8.45;;
49416;SDS011;35290;39.550;8.786;2024-02-21T07:37:24;10.25;;;7.85;;
49416;SDS011;35290;39.550;8.786;2024-02-21T07:39:49;10.45;;;7.68;;
49416;SDS011;35290;39.550;8.786;2024-02-21T07:42:15;11.48;;;7.90;;
49416;SDS011;35290;39.550;8.786;2024-02-21T07:44:41;13.20;;;8.48;;
49416;SDS011;35290;39.550;8.786;2024-02-21T07:47:06;12.48;;;8.07;;
49416;SDS011;35290;39.550;8.786;2024-02-21T07:49:32;10.98;;;7.65;;
49416;SDS011;35290;39.550;8.786;2024-02-21T07:52:00;17.42;;;8.65;;
49416;SDS011;35290;39.550;8.786;2024-02-21T07:54:26;13.65;;;8.60;;
49416;SDS011;35290;39.550;8.786;2024-02-21T07:56:51;11.48;;;7.85;;
49416;SDS011;35290;39.550;8.786;2024-02-21T07:59:17;11.45;;;8.00;;
49416;SDS011;35290;39.550;8.786;2024-02-21T08:01:43;10.60;;;7.57;;
49416;SDS011;35290;39.550;8.786;2024-02-21T08:04:09;12.30;;;9.02;;
49416;SDS011;35290;39.550;8.786;2024-02-21T08:06:35;14.23;;;9.48;;
49416;SDS011;35290;39.550;8.786;2024-02-21T08:09:00;14.35;;;9.00;;
49416;SDS011;35290;39.550;8.786;2024-02-21T08:11:26;13.88;;;9.05;;
49416;SDS011;35290;39.550;8.786;2024-02-21T08:13:51;18.80;;;11.80;;
49416;SDS011;35290;39.550;8.786;2024-02-21T08:16:17;16.70;;;10.10;;
49416;SDS011;35290;39.550;8.786;2024-02-21T08:18:43;16.02;;;10.35;;
49416;SDS011;35290;39.550;8.786;2024-02-21T08:21:09;14.45;;;8.65;;
49416;SDS011;35290;39.550;8.786;2024-02-21T08:23:35;12.75;;;8.43;;
49416;SDS011;35290;39.550;8.786;2024-02-21T08:26:02;14.55;;;8.48;;
49416;SDS011;35290;39.550;8.786;2024-02-21T08:28:29;17.58;;;9.80;;
49416;SDS011;35290;39.550;8.786;2024-02-21T08:30:54;15.20;;;9.55;;
49416;SDS011;35290;39.550;8.786;2024-02-21T08:33:20;16.77;;;10.05;;
49416;SDS011;35290;39.550;8.786;2024-02-21T08:35:49;13.90;;;9.30;;
49416;SDS011;35290;39.550;8.786;2024-02-21T08:38:15;12.88;;;9.07;;
49416;SDS011;35290;39.550;8.786;2024-02-21T08:40:40;16.10;;;9.88;;
49416;SDS011;35290;39.550;8.786;2024-02-21T08:43:06;12.65;;;9.35;;
49416;SDS011;35290;39.550;8.786;2024-02-21T08:45:31;14.10;;;9.73;;
49416;SDS011;35290;39.550;8.786;2024-02-21T08:47:57;14.20;;;9.27;;
49416;SDS011;35290;39.550;8.786;2024-02-21T08:50:22;13.02;;;8.93;;
49416;SDS011;35290;39.550;8.786;2024-02-21T08:52:48;17.55;;;9.82;;
49416;SDS011;35290;39.550;8.786;2024-02-21T08:55:13;19.13;;;10.02;;
49416;SDS011;35290;39.550;8.786;2024-02-21T08:57:39;21.23;;;10.25;;
49416;SDS011;35290;39.550;8.786;2024-02-21T09:00:04;14.65;;;9.40;;
49416;SDS011;35290;39.550;8.786;2024-02-21T09:02:37;17.98;;;10.80;;
49416;SDS011;35290;39.550;8.786;2024-02-21T09:05:07;19.10;;;10.38;;
49416;SDS011;35290;39.550;8.786;2024-02-21T09:07:33;14.95;;;10.82;;
49416;SDS011;35290;39.550;8.786;2024-02-21T09:09:58;17.92;;;10.98;;
49416;SDS011;35290;39.550;8.786;2024-02-21T09:12:24;14.10;;;9.52;;
49416;SDS011;35290;39.550;8.786;2024-02-21T09:14:50;15.93;;;9.90;;
49416;SDS011;35290;39.550;8.786;2024-02-21T09:17:16;18.48;;;12.02;;
49416;SDS011;35290;39.550;8.786;2024-02-21T09:19:46;13.18;;;8.18;;
49416;SDS011;35290;39.550;8.786;2024-02-21T09:22:12;16.73;;;9.48;;
49416;SDS011;35290;39.550;8.786;2024-02-21T09:24:38;14.30;;;9.10;;
49416;SDS011;35290;39.550;8.786;2024-02-21T09:27:04;14.63;;;9.07;;
49416;SDS011;35290;39.550;8.786;2024-02-21T09:29:31;14.02;;;9.20;;
49416;SDS011;35290;39.550;8.786;2024-02-21T09:31:58;14.85;;;9.55;;
49416;SDS011;35290;39.550;8.786;2024-02-21T09:34:24;14.25;;;9.80;;
49416;SDS011;35290;39.550;8.786;2024-02-21T09:36:49;10.60;;;6.82;;
49416;SDS011;35290;39.550;8.786;2024-02-21T09:39:15;9.35;;;6.40;;
49416;SDS011;35290;39.550;8.786;2024-02-21T09:41:45;8.73;;;6.60;;
49416;SDS011;35290;39.550;8.786;2024-02-21T09:44:13;9.95;;;5.93;;
49416;SDS011;35290;39.550;8.786;2024-02-21T09:46:51;14.18;;;6.68;;
49416;SDS011;35290;39.550;8.786;2024-02-21T09:51:56;15.05;;;9.98;;
49416;SDS011;35290;39.550;8.786;2024-02-21T09:54:22;7.00;;;5.43;;
49416;SDS011;35290;39.550;8.786;2024-02-21T09:56:48;8.52;;;5.00;;
49416;SDS011;35290;39.550;8.786;2024-02-21T09:59:17;7.32;;;4.10;;
49416;SDS011;35290;39.550;8.786;2024-02-21T10:01:43;6.95;;;4.75;;
49416;SDS011;35290;39.550;8.786;2024-02-21T10:04:09;6.40;;;4.05;;
49416;SDS011;35290;39.550;8.786;2024-02-21T10:06:35;8.02;;;5.18;;
49416;SDS011;35290;39.550;8.786;2024-02-21T10:09:02;5.07;;;4.13;;
49416;SDS011;35290;39.550;8.786;2024-02-21T10:11:28;7.30;;;4.10;;
49416;SDS011;35290;39.550;8.786;2024-02-21T10:14:04;6.90;;;3.80;;
49416;SDS011;35290;39.550;8.786;2024-02-21T10:16:32;4.90;;;3.40;;
49416;SDS011;35290;39.550;8.786;2024-02-21T10:19:02;4.30;;;2.85;;
49416;SDS011;35290;39.550;8.786;2024-02-21T10:21:28;3.95;;;2.97;;
49416;SDS011;35290;39.550;8.786;2024-02-21T10:23:54;7.32;;;2.97;;
49416;SDS011;35290;39.550;8.786;2024-02-21T10:26:20;4.38;;;3.00;;
49416;SDS011;35290;39.550;8.786;2024-02-21T10:28:49;3.95;;;2.78;;
49416;SDS011;35290;39.550;8.786;2024-02-21T10:31:26;5.88;;;2.58;;
49416;SDS011;35290;39.550;8.786;2024-02-21T10:33:56;4.95;;;2.35;;
49416;SDS011;35290;39.550;8.786;2024-02-21T10:36:22;4.15;;;2.58;;
49416;SDS011;35290;39.550;8.786;2024-02-21T10:38:49;4.10;;;2.55;;
49416;SDS011;35290;39.550;8.786;2024-02-21T10:41:15;4.93;;;2.50;;
49416;SDS011;35290;39.550;8.786;2024-02-21T10:43:41;3.55;;;1.90;;
49416;SDS011;35290;39.550;8.786;2024-02-21T10:46:08;2.92;;;1.88;;
49416;SDS011;35290;39.550;8.786;2024-02-21T10:48:42;3.92;;;2.08;;
49416;SDS011;35290;39.550;8.786;2024-02-21T10:51:14;4.20;;;2.30;;
49416;SDS011;35290;39.550;8.786;2024-02-21T10:56:50;3.17;;;2.10;;
49416;SDS011;35290;39.550;8.786;2024-02-21T10:59:16;5.47;;;2.80;;
49416;SDS011;35290;39.550;8.786;2024-02-21T11:01:42;3.47;;;2.55;;
49416;SDS011;35290;39.550;8.786;2024-02-21T11:04:08;4.70;;;2.42;;
49416;SDS011;35290;39.550;8.786;2024-02-21T11:06:36;2.97;;;2.20;;
49416;SDS011;35290;39.550;8.786;2024-02-21T11:11:39;4.15;;;2.20;;
49416;SDS011;35290;39.550;8.786;2024-02-21T11:16:34;2.40;;;1.92;;
49416;SDS011;35290;39.550;8.786;2024-02-21T11:19:05;3.47;;;2.05;;
49416;SDS011;35290;39.550;8.786;2024-02-21T11:21:52;2.70;;;1.95;;
49416;SDS011;35290;39.550;8.786;2024-02-21T11:24:28;2.53;;;1.67;;
49416;SDS011;35290;39.550;8.786;2024-02-21T11:26:55;2.90;;;1.80;;
49416;SDS011;35290;39.550;8.786;2024-02-21T11:29:49;3.55;;;2.15;;
49416;SDS011;35290;39.550;8.786;2024-02-21T11:32:19;2.35;;;1.73;;
49416;SDS011;35290;39.550;8.786;2024-02-21T11:37:30;3.85;;;2.25;;
49416;SDS011;35290;39.550;8.786;2024-02-21T11:39:58;2.55;;;1.42;;
49416;SDS011;35290;39.550;8.786;2024-02-21T11:42:27;3.10;;;1.92;;
49416;SDS011;35290;39.550;8.786;2024-02-21T11:44:53;2.00;;;1.65;;
49416;SDS011;35290;39.550;8.786;2024-02-21T11:47:21;3.67;;;2.22;;
49416;SDS011;35290;39.550;8.786;2024-02-21T11:49:47;3.10;;;2.42;;
49416;SDS011;35290;39.550;8.786;2024-02-21T11:52:15;4.25;;;2.25;;
49416;SDS011;35290;39.550;8.786;2024-02-21T11:54:41;2.65;;;1.88;;
49416;SDS011;35290;39.550;8.786;2024-02-21T11:57:07;3.92;;;2.53;;
49416;SDS011;35290;39.550;8.786;2024-02-21T11:59:33;4.07;;;3.05;;
49416;SDS011;35290;39.550;8.786;2024-02-21T12:01:59;2.85;;;2.08;;
49416;SDS011;35290;39.550;8.786;2024-02-21T12:04:25;3.10;;;2.40;;
49416;SDS011;35290;39.550;8.786;2024-02-21T12:06:52;4.85;;;2.13;;
49416;SDS011;35290;39.550;8.786;2024-02-21T12:09:18;3.22;;;2.58;;
49416;SDS011;35290;39.550;8.786;2024-02-21T12:11:44;4.82;;;2.67;;
49416;SDS011;35290;39.550;8.786;2024-02-21T12:14:10;4.57;;;2.72;;
49416;SDS011;35290;39.550;8.786;2024-02-21T12:16:36;4.38;;;3.22;;
49416;SDS011;35290;39.550;8.786;2024-02-21T12:19:04;5.30;;;3.90;;
49416;SDS011;35290;39.550;8.786;2024-02-21T12:21:30;7.30;;;2.55;;
49416;SDS011;35290;39.550;8.786;2024-02-21T12:23:58;3.95;;;3.00;;
49416;SDS011;35290;39.550;8.786;2024-02-21T12:26:24;7.70;;;3.22;;
49416;SDS011;35290;39.550;8.786;2024-02-21T12:28:49;5.30;;;3.45;;
49416;SDS011;35290;39.550;8.786;2024-02-21T12:31:15;7.07;;;4.15;;
49416;SDS011;35290;39.550;8.786;2024-02-21T12:33:41;6.00;;;3.97;;
49416;SDS011;35290;39.550;8.786;2024-02-21T12:36:10;5.93;;;2.92;;
49416;SDS011;35290;39.550;8.786;2024-02-21T12:38:36;5.07;;;3.28;;
49416;SDS011;35290;39.550;8.786;2024-02-21T12:41:01;5.18;;;2.85;;
49416;SDS011;35290;39.550;8.786;2024-02-21T12:43:27;6.70;;;3.50;;
49416;SDS011;35290;39.550;8.786;2024-02-21T12:45:52;6.18;;;3.42;;
49416;SDS011;35290;39.550;8.786;2024-02-21T12:48:18;3.63;;;2.70;;
49416;SDS011;35290;39.550;8.786;2024-02-21T12:50:53;3.17;;;2.70;;
49416;SDS011;35290;39.550;8.786;2024-02-21T12:53:19;4.57;;;3.00;;
49416;SDS011;35290;39.550;8.786;2024-02-21T12:55:47;5.65;;;3.40;;
49416;SDS011;35290;39.550;8.786;2024-02-21T12:58:13;4.55;;;2.58;;
49416;SDS011;35290;39.550;8.786;2024-02-21T13:00:39;4.85;;;3.10;;
49416;SDS011;35290;39.550;8.786;2024-02-21T13:03:05;5.70;;;2.80;;
49416;SDS011;35290;39.550;8.786;2024-02-21T13:05:30;3.17;;;2.05;;
49416;SDS011;35290;39.550;8.786;2024-02-21T13:07:57;4.55;;;2.65;;
49416;SDS011;35290;39.550;8.786;2024-02-21T13:10:23;4.30;;;2.83;;
49416;SDS011;35290;39.550;8.786;2024-02-21T13:12:49;4.50;;;2.80;;
49416;SDS011;35290;39.550;8.786;2024-02-21T13:15:14;3.67;;;2.30;;
49416;SDS011;35290;39.550;8.786;2024-02-21T13:17:41;3.03;;;1.88;;
49416;SDS011;35290;39.550;8.786;2024-02-21T13:20:07;3.45;;;1.80;;
49416;SDS011;35290;39.550;8.786;2024-02-21T13:22:33;2.85;;;1.95;;
49416;SDS011;35290;39.550;8.786;2024-02-21T13:25:00;3.42;;;1.88;;
49416;SDS011;35290;39.550;8.786;2024-02-21T13:27:25;6.75;;;5.28;;
49416;SDS011;35290;39.550;8.786;2024-02-21T13:29:51;6.43;;;4.00;;
49416;SDS011;35290;39.550;8.786;2024-02-21T13:32:18;4.85;;;3.03;;
49416;SDS011;35290;39.550;8.786;2024-02-21T13:34:43;7.95;;;3.95;;
49416;SDS011;35290;39.550;8.786;2024-02-21T13:37:09;7.25;;;3.97;;
49416;SDS011;35290;39.550;8.786;2024-02-21T13:39:35;5.45;;;2.92;;
49416;SDS011;35290;39.550;8.786;2024-02-21T13:42:02;3.97;;;2.00;;
49416;SDS011;35290;39.550;8.786;2024-02-21T13:44:30;2.83;;;1.80;;
49416;SDS011;35290;39.550;8.786;2024-02-21T13:46:56;6.10;;;2.17;;
49416;SDS011;35290;39.550;8.786;2024-02-21T13:49:22;5.93;;;2.75;;
49416;SDS011;35290;39.550;8.786;2024-02-21T13:51:48;4.15;;;2.58;;
49416;SDS011;35290;39.550;8.786;2024-02-21T13:54:13;3.38;;;2.58;;
49416;SDS011;35290;39.550;8.786;2024-02-21T13:56:42;7.15;;;3.78;;
49416;SDS011;35290;39.550;8.786;2024-02-21T13:59:08;6.90;;;3.47;;
49416;SDS011;35290;39.550;8.786;2024-02-21T14:01:34;10.50;;;4.20;;
49416;SDS011;35290;39.550;8.786;2024-02-21T14:04:00;8.73;;;5.20;;
49416;SDS011;35290;39.550;8.786;2024-02-21T14:06:26;4.63;;;2.47;;
49416;SDS011;35290;39.550;8.786;2024-02-21T14:08:54;4.35;;;2.50;;
49416;SDS011;35290;39.550;8.786;2024-02-21T14:11:21;4.95;;;2.50;;
49416;SDS011;35290;39.550;8.786;2024-02-21T14:13:46;6.75;;;2.38;;
49416;SDS011;35290;39.550;8.786;2024-02-21T14:16:11;4.38;;;3.00;;
49416;SDS011;35290;39.550;8.786;2024-02-21T14:18:38;4.75;;;2.47;;
49416;SDS011;35290;39.550;8.786;2024-02-21T14:21:12;5.97;;;2.55;;
49416;SDS011;35290;39.550;8.786;2024-02-21T14:23:38;7.05;;;3.58;;
49416;SDS011;35290;39.550;8.786;2024-02-21T14:26:04;6.72;;;3.03;;
49416;SDS011;35290;39.550;8.786;2024-02-21T14:28:30;5.15;;;2.30;;
49416;SDS011;35290;39.550;8.786;2024-02-21T14:30:56;8.00;;;2.83;;
49416;SDS011;35290;39.550;8.786;2024-02-21T14:33:31;8.10;;;3.13;;
49416;SDS011;35290;39.550;8.786;2024-02-21T14:35:57;5.85;;;3.10;;
49416;SDS011;35290;39.550;8.786;2024-02-21T14:38:22;6.10;;;2.50;;
49416;SDS011;35290;39.550;8.786;2024-02-21T14:40:48;10.35;;;4.60;;
49416;SDS011;35290;39.550;8.786;2024-02-21T14:43:14;7.15;;;4.00;;